Time;durP1;ratioP1;P1;durP2;ratioP2;P2;SDS_P1;SDS_P2;PMS_P1;PMS_P2;Temp;Humidity;BMP_temperature;BMP_pressure;BME280_temperature;BME280_humidity;BME280_pressure;Samples;Min_cycle;Max_cycle;Signal;HPM_P1;HPM_P2
2022/04/21 00:02:24;;;;;;;10.55;5.63;;;8.40;99.90;;;;;;4995828;28;20042;-73
2022/04/21 00:04:50;;;;;;;9.57;4.97;;;8.40;99.90;;;;;;4994992;28;20034;-73
2022/04/21 00:07:15;;;;;;;10.63;5.60;;;8.30;99.90;;;;;;4994199;28;20038;-73
2022/04/21 00:09:41;;;;;;;8.82;5.00;;;8.40;99.90;;;;;;4995793;28;20173;-73
2022/04/21 00:12:07;;;;;;;9.85;4.85;;;8.40;99.90;;;;;;4994821;28;20035;-72
2022/04/21 00:14:32;;;;;;;9.68;5.15;;;8.40;99.90;;;;;;5028377;28;20069;-72
2022/04/21 00:16:58;;;;;;;9.07;5.22;;;8.50;99.90;;;;;;5025428;28;20065;-72
2022/04/21 00:19:23;;;;;;;9.20;5.38;;;8.50;99.90;;;;;;4979126;28;20422;-72
2022/04/21 00:24:33;;;;;;;10.15;5.38;;;8.60;99.90;;;;;;4995527;28;20050;-72
2022/04/21 00:26:59;;;;;;;10.52;5.68;;;8.60;99.90;;;;;;4994570;28;20042;-72
2022/04/21 00:29:24;;;;;;;9.35;5.85;;;8.50;99.90;;;;;;4994365;28;20414;-72
2022/04/21 00:31:50;;;;;;;9.48;5.80;;;8.30;99.90;;;;;;4994671;28;20057;-72
2022/04/21 00:34:18;;;;;;;9.88;5.72;;;8.30;99.90;;;;;;4995294;28;20030;-72
2022/04/21 00:36:44;;;;;;;10.07;5.63;;;8.10;99.90;;;;;;4994490;28;20051;-72
2022/04/21 00:39:10;;;;;;;10.32;5.57;;;8.10;99.90;;;;;;5011505;28;20042;-72
2022/04/21 00:41:36;;;;;;;12.73;6.13;;;8.00;99.90;;;;;;5027410;28;20061;-72
2022/04/21 00:44:02;;;;;;;10.48;5.43;;;7.80;99.90;;;;;;4994970;28;20490;-72
2022/04/21 00:46:29;;;;;;;12.40;5.95;;;7.60;99.90;;;;;;5010488;28;20042;-72
2022/04/21 00:48:55;;;;;;;10.65;5.60;;;7.50;99.90;;;;;;4994983;28;20042;-72
2022/04/21 00:51:22;;;;;;;9.75;5.53;;;7.60;99.90;;;;;;4993367;28;20089;-72
2022/04/21 00:53:48;;;;;;;10.98;6.40;;;7.60;99.90;;;;;;5027569;28;20042;-72
2022/04/21 00:56:14;;;;;;;12.85;7.20;;;7.60;99.90;;;;;;5010281;28;20053;-72
2022/04/21 00:58:41;;;;;;;10.85;6.13;;;7.50;99.90;;;;;;5027543;28;20034;-72
2022/04/21 01:02:46;;;;;;;12.52;6.07;;;7.60;99.90;;;;;;5010189;28;20038;-72
2022/04/21 01:03:54;;;;;;;10.75;6.45;;;7.50;99.90;;;;;;5025639;28;20380;-72
2022/04/21 01:06:19;;;;;;;11.02;5.93;;;7.40;99.90;;;;;;5011418;28;20034;-72
2022/04/21 01:08:46;;;;;;;11.35;6.85;;;7.30;99.90;;;;;;4993751;28;20038;-72
2022/04/21 01:11:13;;;;;;;10.73;6.50;;;7.20;99.90;;;;;;5027616;28;20038;-72
2022/04/21 01:13:38;;;;;;;10.63;6.15;;;7.10;99.90;;;;;;5007065;28;20042;-72
2022/04/21 01:16:05;;;;;;;10.80;6.80;;;7.10;99.90;;;;;;4994667;28;20043;-72
2022/04/21 01:18:31;;;;;;;10.35;6.32;;;7.00;99.90;;;;;;5026444;28;20031;-72
2022/04/21 01:20:56;;;;;;;12.25;6.75;;;7.10;99.90;;;;;;4994279;28;20046;-72
2022/04/21 01:23:22;;;;;;;10.18;6.10;;;7.20;99.90;;;;;;4993382;28;20050;-72
2022/04/21 01:25:49;;;;;;;10.77;6.20;;;7.20;99.90;;;;;;4977288;28;20050;-72
2022/04/21 01:28:14;;;;;;;14.65;7.15;;;7.10;99.90;;;;;;4977117;28;20097;-72
2022/04/21 01:30:40;;;;;;;12.35;7.38;;;7.10;99.90;;;;;;4994273;28;20046;-72
2022/04/21 01:33:06;;;;;;;12.15;7.32;;;7.00;99.90;;;;;;4978229;28;20077;-72
2022/04/21 01:35:31;;;;;;;13.77;7.78;;;6.90;99.90;;;;;;4993296;28;20042;-72
2022/04/21 01:43:25;;;;;;;14.90;8.23;;;6.60;99.90;;;;;;4993161;28;20046;-72
2022/04/21 01:45:51;;;;;;;12.07;7.60;;;6.70;99.90;;;;;;5026816;28;20379;-72
2022/04/21 01:48:16;;;;;;;12.95;7.70;;;6.60;99.90;;;;;;4992997;28;20046;-72
2022/04/21 01:50:42;;;;;;;14.10;8.02;;;6.60;99.90;;;;;;4992791;28;20126;-72
2022/04/21 01:53:08;;;;;;;14.23;8.25;;;6.60;99.90;;;;;;4993758;28;20073;-72
2022/04/21 01:55:33;;;;;;;13.55;8.02;;;6.70;99.90;;;;;;4991659;28;20053;-72
2022/04/21 01:57:59;;;;;;;13.60;8.50;;;6.60;99.90;;;;;;4993711;28;20042;-72
2022/04/21 02:00:25;;;;;;;13.85;8.60;;;6.60;99.90;;;;;;5009109;28;21634;-72
2022/04/21 02:02:50;;;;;;;13.60;8.43;;;6.70;99.90;;;;;;4993682;28;20049;-72
2022/04/21 02:05:16;;;;;;;13.73;8.40;;;6.60;99.90;;;;;;4992779;28;20406;-72
2022/04/21 02:07:44;;;;;;;15.35;8.77;;;6.60;99.90;;;;;;4992163;28;20038;-72
2022/04/21 02:10:10;;;;;;;13.77;8.88;;;6.60;99.90;;;;;;4992031;28;20121;-72
2022/04/21 02:12:36;;;;;;;13.10;8.25;;;6.70;99.90;;;;;;4976756;28;20120;-72
2022/04/21 02:15:02;;;;;;;19.02;10.13;;;6.70;99.90;;;;;;4992529;28;20487;-72
2022/04/21 02:17:28;;;;;;;19.05;10.07;;;6.70;99.90;;;;;;4993455;28;20124;-72
2022/04/21 02:19:54;;;;;;;14.77;9.40;;;6.70;99.90;;;;;;4975995;28;20580;-72
2022/04/21 02:22:20;;;;;;;15.65;9.52;;;6.60;99.90;;;;;;4993327;28;20050;-72
2022/04/21 02:24:45;;;;;;;13.40;9.27;;;6.70;99.90;;;;;;4992409;28;20045;-72
2022/04/21 02:27:11;;;;;;;15.25;9.80;;;6.60;99.90;;;;;;4993298;28;20038;-72
2022/04/21 02:29:37;;;;;;;18.05;9.50;;;6.70;99.90;;;;;;5025216;28;20084;-72
2022/04/21 02:32:04;;;;;;;16.38;9.95;;;6.80;99.90;;;;;;4977220;28;20074;-72
2022/04/21 02:34:30;;;;;;;18.20;9.50;;;6.80;99.90;;;;;;4976298;28;20043;-72
2022/04/21 02:36:56;;;;;;;16.88;10.82;;;6.70;99.90;;;;;;5009406;28;20044;-72
2022/04/21 02:39:22;;;;;;;14.45;8.80;;;6.70;99.90;;;;;;4991622;28;20031;-72
2022/04/21 02:41:48;;;;;;;14.68;10.05;;;6.80;99.90;;;;;;5009204;28;20038;-72
2022/04/21 02:44:13;;;;;;;14.73;9.93;;;6.70;99.90;;;;;;5008305;28;20049;-72
2022/04/21 02:46:39;;;;;;;15.90;10.02;;;6.70;99.90;;;;;;4991965;28;20446;-72
2022/04/21 02:49:05;;;;;;;15.20;9.32;;;6.70;99.90;;;;;;5025527;28;20078;-72
2022/04/21 02:51:31;;;;;;;16.05;9.60;;;6.70;99.90;;;;;;5025995;28;20046;-72
2022/04/21 02:59:26;;;;;;;14.13;8.95;;;6.70;99.90;;;;;;4973323;28;20039;-72
2022/04/21 03:01:52;;;;;;;14.15;8.75;;;6.80;99.90;;;;;;5005923;28;20043;-73
2022/04/21 03:04:17;;;;;;;16.45;9.85;;;6.80;99.90;;;;;;4992697;28;20101;-73
2022/04/21 03:06:43;;;;;;;13.35;8.95;;;6.80;99.90;;;;;;4991085;28;20038;-73
2022/04/21 03:09:08;;;;;;;15.18;8.77;;;6.70;99.90;;;;;;5024737;28;20042;-73
2022/04/21 03:11:34;;;;;;;17.45;9.50;;;6.70;99.90;;;;;;4991661;28;20107;-73
2022/04/21 03:13:59;;;;;;;15.80;9.02;;;6.70;99.90;;;;;;4992063;28;20035;-73
2022/04/21 03:16:25;;;;;;;13.85;8.55;;;6.70;99.90;;;;;;4991169;28;20157;-73
2022/04/21 03:18:51;;;;;;;13.68;9.18;;;6.70;99.90;;;;;;4991850;28;20068;-73
2022/04/21 03:26:45;;;;;;;13.32;9.20;;;6.60;99.90;;;;;;4985148;28;20510;-73
2022/04/21 03:29:10;;;;;;;13.18;8.95;;;6.50;99.90;;;;;;4972358;28;20055;-73
2022/04/21 03:31:36;;;;;;;12.77;8.82;;;6.60;99.90;;;;;;4998571;28;20125;-72
2022/04/21 03:34:05;;;;;;;14.00;9.35;;;6.60;99.90;;;;;;5024290;28;20491;-73
2022/04/21 03:36:31;;;;;;;13.60;8.38;;;6.60;99.90;;;;;;4991244;28;20042;-73
2022/04/21 03:38:57;;;;;;;16.27;9.30;;;6.50;99.90;;;;;;4992028;28;20498;-73
2022/04/21 03:41:22;;;;;;;14.73;9.32;;;6.60;99.90;;;;;;4975711;28;20162;-73
2022/04/21 03:43:48;;;;;;;14.48;8.65;;;6.50;99.90;;;;;;4992355;28;20042;-73
2022/04/21 03:46:14;;;;;;;13.70;9.02;;;6.50;99.90;;;;;;4976254;28;20133;-73
2022/04/21 03:48:39;;;;;;;14.40;9.00;;;6.50;99.90;;;;;;4992202;28;20121;-73
2022/04/21 03:51:05;;;;;;;16.05;9.80;;;6.50;99.90;;;;;;4976026;28;20042;-73
2022/04/21 03:53:30;;;;;;;15.38;9.45;;;6.50;99.90;;;;;;4992211;28;20510;-73
2022/04/21 03:55:57;;;;;;;16.73;9.25;;;6.40;99.90;;;;;;4992309;28;20418;-73
2022/04/21 03:58:22;;;;;;;13.05;8.40;;;6.40;99.90;;;;;;4992446;28;20113;-73
2022/04/21 04:00:48;;;;;;;14.13;8.60;;;6.40;99.90;;;;;;4992344;28;20173;-73
2022/04/21 04:03:14;;;;;;;15.23;9.25;;;6.50;99.90;;;;;;4976011;28;20052;-73
2022/04/21 04:05:40;;;;;;;12.98;7.93;;;6.50;99.90;;;;;;4992169;28;20048;-73
2022/04/21 04:10:53;;;;;;;13.27;8.52;;;6.60;99.90;;;;;;5008438;28;20042;-73
2022/04/21 04:13:22;;;;;;;12.43;8.07;;;6.60;99.90;;;;;;4992047;28;20042;-73
2022/04/21 04:15:49;;;;;;;14.80;8.93;;;6.70;99.90;;;;;;4992378;28;20054;-73
2022/04/21 04:18:19;;;;;;;13.65;8.45;;;6.70;99.90;;;;;;4994172;28;20053;-73
2022/04/21 04:20:48;;;;;;;15.00;9.18;;;6.70;99.90;;;;;;4995487;28;20076;-72
2022/04/21 04:23:18;;;;;;;12.88;8.68;;;6.70;99.90;;;;;;5011997;28;20054;-73
2022/04/21 04:25:43;;;;;;;13.43;8.55;;;6.60;99.90;;;;;;4975629;28;20121;-73
2022/04/21 04:28:09;;;;;;;14.63;8.80;;;6.60;99.90;;;;;;4959852;28;20181;-73
2022/04/21 04:30:40;;;;;;;14.00;8.63;;;6.60;99.90;;;;;;5022556;28;20054;-73
2022/04/21 04:33:06;;;;;;;12.35;8.63;;;6.60;99.90;;;;;;4995175;28;20038;-72
2022/04/21 04:35:32;;;;;;;13.23;8.88;;;6.60;99.90;;;;;;5028134;28;20050;-73
2022/04/21 04:37:58;;;;;;;12.68;8.48;;;6.60;99.90;;;;;;5028078;28;20050;-72
2022/04/21 04:40:25;;;;;;;13.13;8.48;;;6.60;99.90;;;;;;5028359;28;20038;-73
2022/04/21 04:42:53;;;;;;;13.82;8.60;;;6.60;99.90;;;;;;5027990;28;20038;-72
2022/04/21 04:48:03;;;;;;;12.98;8.02;;;6.60;99.90;;;;;;5028218;28;20078;-72
2022/04/21 04:50:29;;;;;;;13.63;8.75;;;6.60;99.90;;;;;;5009281;28;20517;-72
2022/04/21 04:52:58;;;;;;;14.63;8.38;;;6.60;99.90;;;;;;4978306;28;20030;-72
2022/04/21 04:55:25;;;;;;;12.15;7.40;;;6.60;99.90;;;;;;4991968;28;20490;-72
2022/04/21 04:57:51;;;;;;;12.80;8.18;;;6.60;99.90;;;;;;4961079;28;20035;-72
2022/04/21 05:00:17;;;;;;;13.43;8.57;;;6.60;99.90;;;;;;4957348;28;20042;-73
2022/04/21 05:02:44;;;;;;;11.90;8.25;;;6.50;99.90;;;;;;4979657;28;20054;-73
2022/04/21 05:05:11;;;;;;;13.85;7.90;;;6.50;99.90;;;;;;4988166;28;20700;-73
2022/04/21 05:07:39;;;;;;;14.55;8.23;;;6.50;99.90;;;;;;4970292;28;20518;-73
2022/04/21 05:10:06;;;;;;;11.55;7.45;;;6.50;99.90;;;;;;4969577;28;20042;-73
2022/04/21 05:12:31;;;;;;;12.10;8.15;;;6.50;99.90;;;;;;5002542;28;20068;-73
2022/04/21 05:14:58;;;;;;;13.25;8.45;;;6.60;99.90;;;;;;4956888;28;20043;-72
2022/04/21 05:17:24;;;;;;;13.35;8.60;;;6.60;99.90;;;;;;4990346;28;20051;-73
2022/04/21 05:19:52;;;;;;;13.15;8.05;;;6.70;99.90;;;;;;4971073;28;20050;-72
2022/04/21 05:22:18;;;;;;;13.80;8.07;;;6.70;99.90;;;;;;4985135;28;20242;-73
2022/04/21 05:24:46;;;;;;;12.38;7.63;;;6.70;99.90;;;;;;5005838;28;20058;-73
2022/04/21 05:27:12;;;;;;;12.43;8.07;;;6.70;99.90;;;;;;4975898;28;20380;-73
2022/04/21 05:32:27;;;;;;;12.63;7.72;;;6.80;99.90;;;;;;4985630;28;20050;-72
2022/04/21 05:34:52;;;;;;;11.68;8.02;;;6.80;99.90;;;;;;5001704;28;20069;-73
2022/04/21 05:37:18;;;;;;;12.35;8.23;;;6.90;99.90;;;;;;4984963;28;20064;-72
2022/04/21 05:39:44;;;;;;;12.48;8.02;;;6.90;99.90;;;;;;4985717;28;20566;-73
2022/04/21 05:42:20;;;;;;;12.80;8.02;;;7.00;99.90;;;;;;4985478;28;20070;-72
2022/04/21 05:44:46;;;;;;;12.13;7.57;;;7.10;99.90;;;;;;4986535;28;20061;-72
2022/04/21 05:47:12;;;;;;;13.07;8.23;;;7.10;99.90;;;;;;4989361;28;20046;-72
2022/04/21 05:49:38;;;;;;;11.65;7.60;;;7.20;99.90;;;;;;4968491;28;20522;-73
2022/04/21 05:52:07;;;;;;;12.82;7.97;;;7.30;99.90;;;;;;4963731;28;20034;-72
2022/04/21 05:54:33;;;;;;;12.70;7.97;;;7.40;99.90;;;;;;4988920;28;20061;-72
2022/04/21 05:56:59;;;;;;;12.95;8.18;;;7.40;99.90;;;;;;5011155;28;20482;-72
2022/04/21 05:59:24;;;;;;;10.45;6.65;;;7.60;99.90;;;;;;4994762;28;20546;-72
2022/04/21 06:01:50;;;;;;;11.95;7.85;;;7.60;99.90;;;;;;4970983;28;20101;-72
2022/04/21 06:04:16;;;;;;;10.90;7.05;;;7.70;99.90;;;;;;5009626;28;20047;-72
2022/04/21 06:06:42;;;;;;;12.02;7.45;;;7.80;99.90;;;;;;4977013;28;20038;-72
2022/04/21 06:09:07;;;;;;;12.30;7.15;;;7.90;99.90;;;;;;5016826;28;20045;-72
2022/04/21 06:11:34;;;;;;;10.43;6.97;;;8.00;99.90;;;;;;5007022;28;20081;-72
2022/04/21 06:14:00;;;;;;;11.52;7.38;;;8.10;99.90;;;;;;4978905;28;20084;-72
2022/04/21 06:16:25;;;;;;;10.25;6.95;;;8.20;99.90;;;;;;4976892;28;20042;-72
2022/04/21 06:18:51;;;;;;;11.70;6.63;;;8.30;99.90;;;;;;4993245;28;20507;-72
2022/04/21 06:21:16;;;;;;;10.95;6.60;;;8.50;99.90;;;;;;4992780;28;20047;-72
2022/04/21 06:23:42;;;;;;;11.85;6.78;;;8.60;99.90;;;;;;4973675;28;20057;-72
2022/04/21 06:26:08;;;;;;;11.65;7.43;;;8.80;99.90;;;;;;5018669;28;20042;-72
2022/04/21 06:28:34;;;;;;;10.68;6.45;;;8.80;99.90;;;;;;4992999;28;20053;-72
2022/04/21 06:30:59;;;;;;;10.73;6.55;;;8.90;99.90;;;;;;4993525;28;20510;-72
2022/04/21 06:33:25;;;;;;;9.50;6.07;;;9.00;99.90;;;;;;5001707;28;20030;-71
2022/04/21 06:35:51;;;;;;;8.27;5.10;;;9.10;99.90;;;;;;4990457;28;20453;-72
2022/04/21 06:38:16;;;;;;;8.50;5.43;;;9.20;99.90;;;;;;4975960;28;20049;-72
2022/04/21 06:40:42;;;;;;;9.50;5.53;;;9.30;99.90;;;;;;4992281;28;20033;-71
2022/04/21 06:48:36;;;;;;;10.18;5.80;;;9.70;99.90;;;;;;4992309;28;20042;-72
2022/04/21 06:51:02;;;;;;;9.88;5.25;;;9.80;99.90;;;;;;4990551;28;20038;-72
2022/04/21 06:53:29;;;;;;;8.23;5.20;;;9.80;99.90;;;;;;5014263;28;20033;-72
2022/04/21 06:55:55;;;;;;;8.13;4.65;;;9.90;99.90;;;;;;4988698;28;20556;-72
2022/04/21 06:58:20;;;;;;;8.90;4.85;;;10.00;99.90;;;;;;4992483;28;20042;-72
2022/04/21 07:00:48;;;;;;;8.55;4.80;;;10.10;99.90;;;;;;4972055;28;20479;-72
2022/04/21 07:03:14;;;;;;;7.75;4.40;;;10.20;99.90;;;;;;4975502;28;20042;-72
2022/04/21 07:05:39;;;;;;;8.15;3.92;;;10.40;99.90;;;;;;4992399;28;20494;-73
2022/04/21 07:08:06;;;;;;;8.40;4.28;;;10.40;99.90;;;;;;4991976;28;20042;-72
2022/04/21 07:10:32;;;;;;;8.25;4.15;;;10.50;99.90;;;;;;5025504;28;20050;-72
2022/04/21 07:12:58;;;;;;;6.85;3.30;;;10.60;99.90;;;;;;5023255;28;20078;-72
2022/04/21 07:15:24;;;;;;;7.78;3.70;;;10.80;99.90;;;;;;4991194;28;20070;-72
2022/04/21 07:17:50;;;;;;;7.93;3.80;;;10.80;98.10;;;;;;4971375;28;20053;-72
2022/04/21 07:20:15;;;;;;;7.32;3.28;;;10.90;99.30;;;;;;4973184;28;20043;-72
2022/04/21 07:22:41;;;;;;;6.47;3.78;;;11.00;98.50;;;;;;4991762;28;20170;-73
2022/04/21 07:25:09;;;;;;;7.18;3.25;;;11.10;98.60;;;;;;5024651;28;20126;-73
2022/04/21 07:27:36;;;;;;;7.28;3.40;;;11.20;98.40;;;;;;4992328;28;20518;-72
2022/04/21 07:30:02;;;;;;;6.95;3.20;;;11.40;99.00;;;;;;5007490;28;20038;-73
2022/04/21 07:32:28;;;;;;;7.90;3.60;;;11.40;97.80;;;;;;4995926;28;20081;-73
2022/04/21 07:34:54;;;;;;;9.45;4.50;;;11.50;96.50;;;;;;5018936;28;20074;-73
2022/04/21 07:37:20;;;;;;;7.43;3.67;;;11.50;94.20;;;;;;4962162;28;20608;-73
2022/04/21 07:39:46;;;;;;;8.38;3.88;;;11.50;96.40;;;;;;5010165;28;20050;-73
2022/04/21 07:42:12;;;;;;;9.23;3.83;;;11.60;97.50;;;;;;4990417;28;20069;-73
2022/04/21 07:44:38;;;;;;;9.20;3.58;;;11.70;96.10;;;;;;5023542;28;20093;-73
2022/04/21 07:47:07;;;;;;;8.35;3.45;;;11.80;97.00;;;;;;4972686;28;20070;-72
2022/04/21 07:49:46;;;;;;;11.45;3.72;;;11.80;94.40;;;;;;4992124;28;20398;-73
2022/04/21 07:55:25;;;;;;;7.90;3.45;;;12.00;95.30;;;;;;4995378;28;20054;-72
2022/04/21 07:57:56;;;;;;;6.60;3.65;;;12.10;94.90;;;;;;5027997;28;20414;-72
2022/04/21 08:00:22;;;;;;;11.15;4.25;;;12.20;95.00;;;;;;4995552;28;20089;-72
2022/04/21 08:02:48;;;;;;;8.23;3.65;;;12.30;95.00;;;;;;4990639;28;20034;-72
2022/04/21 08:05:19;;;;;;;8.32;3.58;;;12.40;95.30;;;;;;5008675;28;20046;-72
2022/04/21 08:07:45;;;;;;;6.93;3.97;;;12.50;93.60;;;;;;5009790;28;20052;-73
2022/04/21 08:10:12;;;;;;;5.03;2.90;;;12.60;94.80;;;;;;4978971;28;20038;-72
2022/04/21 08:12:42;;;;;;;6.95;2.97;;;12.60;91.10;;;;;;4993001;28;20034;-72
2022/04/21 08:15:10;;;;;;;8.95;2.97;;;12.70;91.90;;;;;;4995096;28;20141;-71
2022/04/21 08:17:37;;;;;;;6.75;3.47;;;12.70;92.30;;;;;;4994520;28;20442;-71
2022/04/21 08:20:08;;;;;;;5.38;2.90;;;12.80;92.30;;;;;;4977001;28;20054;-71
2022/04/21 08:22:34;;;;;;;6.53;2.95;;;13.00;90.10;;;;;;4975053;28;20049;-72
2022/04/21 08:33:14;;;;;;;5.70;2.88;;;13.30;91.10;;;;;;4993949;28;20038;-73
2022/04/21 08:35:41;;;;;;;6.57;2.70;;;13.40;89.90;;;;;;4978307;28;20113;-73
2022/04/21 08:38:09;;;;;;;7.80;3.47;;;13.60;90.70;;;;;;4995085;28;20043;-73
2022/04/21 08:40:36;;;;;;;6.63;3.35;;;13.50;85.40;;;;;;5020762;28;20043;-73
2022/04/21 08:43:11;;;;;;;6.78;2.90;;;13.60;89.10;;;;;;5026663;28;20042;-73
2022/04/21 08:45:37;;;;;;;7.50;3.38;;;13.60;84.00;;;;;;4977555;28;20181;-73
2022/04/21 08:48:04;;;;;;;7.85;3.40;;;13.70;88.20;;;;;;4999921;28;20109;-73
2022/04/21 08:50:31;;;;;;;6.38;3.05;;;13.80;88.60;;;;;;4994495;28;20062;-73
2022/04/21 08:52:58;;;;;;;6.72;3.00;;;13.80;88.30;;;;;;4997707;28;20383;-73
2022/04/21 08:55:24;;;;;;;6.10;2.97;;;14.00;89.10;;;;;;5013386;28;20130;-73
2022/04/21 08:57:49;;;;;;;6.18;3.50;;;14.10;86.10;;;;;;5018914;28;20177;-73
2022/04/21 09:00:15;;;;;;;7.15;3.42;;;14.10;78.80;;;;;;4992022;28;20042;-73
2022/04/21 09:02:45;;;;;;;7.15;3.00;;;14.10;86.10;;;;;;5011982;28;20030;-74
2022/04/21 09:05:11;;;;;;;5.78;3.15;;;14.20;83.40;;;;;;4997188;28;20043;-74
2022/04/21 09:07:44;;;;;;;8.15;3.00;;;14.30;82.20;;;;;;5021022;28;20126;-73
2022/04/21 09:10:11;;;;;;;6.88;3.13;;;14.20;81.60;;;;;;5010286;28;20089;-73
2022/04/21 09:12:44;;;;;;;6.85;3.03;;;14.30;81.20;;;;;;4992820;28;20052;-73
2022/04/21 09:15:17;;;;;;;8.30;3.25;;;14.20;81.10;;;;;;4982637;28;20069;-73
2022/04/21 09:17:47;;;;;;;6.22;3.08;;;14.30;79.00;;;;;;4976592;28;20121;-74
2022/04/21 09:20:16;;;;;;;7.20;3.28;;;14.40;88.00;;;;;;4977585;28;20046;-73
2022/04/21 09:22:47;;;;;;;7.78;3.28;;;14.50;78.60;;;;;;5009400;28;20049;-73
2022/04/21 09:25:12;;;;;;;8.00;3.85;;;14.70;79.60;;;;;;4993698;28;20169;-73
2022/04/21 09:27:48;;;;;;;7.82;3.75;;;14.70;84.10;;;;;;4978015;28;20121;-73
2022/04/21 09:30:14;;;;;;;7.45;3.00;;;14.80;79.80;;;;;;4978068;28;20069;-73
2022/04/21 09:32:41;;;;;;;6.18;3.60;;;14.90;83.00;;;;;;4990951;28;20039;-72
2022/04/21 09:35:09;;;;;;;7.50;3.28;;;15.10;82.60;;;;;;4969555;28;20097;-72
2022/04/21 09:37:52;;;;;;;5.95;3.15;;;15.10;81.70;;;;;;4992169;28;20058;-73
2022/04/21 09:40:20;;;;;;;7.10;3.63;;;15.30;81.70;;;;;;5024209;28;20049;-73
2022/04/21 09:42:54;;;;;;;5.50;3.00;;;15.30;77.30;;;;;;5026837;28;20041;-73
2022/04/21 09:48:29;;;;;;;9.88;4.38;;;15.50;77.30;;;;;;4992958;28;20074;-74
2022/04/21 09:51:16;;;;;;;8.32;3.90;;;15.60;79.60;;;;;;5011598;28;20038;-74
2022/04/21 09:53:49;;;;;;;6.35;3.47;;;15.70;79.90;;;;;;4978276;28;20070;-73
2022/04/21 09:56:15;;;;;;;6.30;3.38;;;15.80;84.70;;;;;;5007421;28;20077;-73
2022/04/21 09:58:44;;;;;;;6.10;3.03;;;15.80;80.50;;;;;;4991373;28;20061;-73
2022/04/21 10:01:10;;;;;;;7.45;3.58;;;15.90;76.70;;;;;;5026326;28;20052;-73
2022/04/21 10:03:41;;;;;;;6.63;3.15;;;16.00;72.00;;;;;;5026142;28;20042;-73
2022/04/21 10:06:06;;;;;;;5.70;3.28;;;16.10;74.00;;;;;;4988471;28;20043;-73
2022/04/21 10:08:34;;;;;;;6.20;2.92;;;16.10;69.30;;;;;;4973388;28;20398;-74
2022/04/21 10:10:59;;;;;;;7.20;3.58;;;16.00;68.50;;;;;;4987632;28;20046;-74
2022/04/21 10:13:25;;;;;;;5.30;2.55;;;16.00;66.70;;;;;;4974567;28;20125;-73
2022/04/21 10:15:52;;;;;;;5.72;3.03;;;16.10;69.00;;;;;;4987158;28;20035;-73
2022/04/21 10:18:19;;;;;;;7.53;3.25;;;16.10;72.80;;;;;;4976909;28;20551;-74
2022/04/21 10:20:45;;;;;;;6.68;3.33;;;16.20;66.60;;;;;;4991414;28;20121;-74
2022/04/21 10:23:22;;;;;;;8.07;3.10;;;16.30;77.80;;;;;;4992904;28;20046;-73
2022/04/21 10:25:58;;;;;;;7.32;3.28;;;16.40;71.90;;;;;;5017483;28;20471;-73
2022/04/21 10:28:41;;;;;;;9.50;3.38;;;16.50;70.60;;;;;;5009880;28;20112;-73
2022/04/21 10:31:33;;;;;;;8.32;3.63;;;16.50;69.60;;;;;;4992679;28;20077;-73
2022/04/21 10:34:03;;;;;;;6.13;3.17;;;16.60;69.50;;;;;;4992070;28;20042;-73
2022/04/21 10:36:41;;;;;;;7.68;3.47;;;16.60;67.30;;;;;;5004371;28;20473;-73
2022/04/21 10:39:25;;;;;;;6.43;3.30;;;16.70;67.40;;;;;;5005719;28;20038;-73
2022/04/21 10:42:14;;;;;;;6.43;3.15;;;16.70;66.20;;;;;;4988278;28;20061;-73
2022/04/21 10:44:56;;;;;;;6.07;3.17;;;16.70;67.00;;;;;;4992266;28;20766;-79
2022/04/21 10:47:42;;;;;;;5.88;3.00;;;16.80;72.00;;;;;;4991825;28;20507;-79
2022/04/21 10:50:10;;;;;;;6.65;3.63;;;16.80;67.20;;;;;;4987721;28;20070;-75
2022/04/21 10:57:51;;;;;;;9.23;3.70;;;16.70;68.20;;;;;;4992755;28;20046;-83
2022/04/21 11:00:28;;;;;;;6.00;3.22;;;16.90;67.90;;;;;;4985267;28;20517;-82
2022/04/21 11:03:08;;;;;;;6.15;3.20;;;16.80;64.30;;;;;;5007921;28;20095;-78
2022/04/21 11:05:38;;;;;;;7.85;3.25;;;16.70;62.60;;;;;;4976067;28;20038;-74
2022/04/21 11:08:10;;;;;;;6.40;3.47;;;16.70;65.40;;;;;;4976068;28;20042;-78
2022/04/21 11:10:45;;;;;;;5.55;3.17;;;16.70;64.70;;;;;;5004888;28;20043;-79
2022/04/21 11:13:18;;;;;;;8.55;3.72;;;16.70;65.10;;;;;;5022725;28;20085;-82
2022/04/21 11:15:49;;;;;;;5.70;3.15;;;16.70;67.10;;;;;;5026119;28;20070;-77
2022/04/21 11:18:18;;;;;;;6.38;3.40;;;16.80;64.60;;;;;;4991044;28;20042;-77
2022/04/21 11:20:47;;;;;;;7.60;3.20;;;16.70;64.80;;;;;;4990645;28;20173;-76
2022/04/21 11:23:29;;;;;;;6.28;2.90;;;16.70;65.90;;;;;;5005296;28;20411;-76
2022/04/21 11:26:06;;;;;;;5.47;2.75;;;16.70;61.70;;;;;;4988743;28;20057;-75
2022/04/21 11:28:32;;;;;;;4.72;2.50;;;16.80;61.80;;;;;;4990260;28;20557;-76
2022/04/21 11:30:59;;;;;;;6.45;2.88;;;16.80;61.70;;;;;;4996529;28;20042;-76
2022/04/21 11:33:25;;;;;;;5.35;3.03;;;16.90;62.40;;;;;;5019173;28;20085;-76
2022/04/21 11:36:06;;;;;;;5.38;2.92;;;17.00;64.90;;;;;;4977774;28;20071;-76
2022/04/21 11:38:33;;;;;;;5.47;2.60;;;17.10;63.80;;;;;;4994251;28;20077;-76
2022/04/21 11:41:07;;;;;;;5.35;2.70;;;17.20;62.20;;;;;;4995903;28;20038;-76
2022/04/21 11:43:33;;;;;;;5.70;2.90;;;17.30;59.60;;;;;;4980173;28;20498;-76
2022/04/21 11:46:06;;;;;;;11.00;3.33;;;17.30;62.00;;;;;;5012351;28;20081;-77
2022/04/21 11:48:37;;;;;;;5.53;2.83;;;17.20;60.40;;;;;;4978775;28;20057;-77
2022/04/21 11:51:04;;;;;;;6.93;3.00;;;17.30;62.40;;;;;;4994828;28;20042;-77
2022/04/21 11:53:43;;;;;;;6.68;3.03;;;17.20;57.10;;;;;;5027861;28;20053;-78
2022/04/21 11:56:10;;;;;;;6.45;2.60;;;16.90;59.30;;;;;;4960251;28;20142;-78
2022/04/21 11:58:38;;;;;;;6.97;2.90;;;16.80;60.00;;;;;;4961328;28;20046;-79
2022/04/21 12:06:48;;;;;;;6.05;3.60;;;16.80;61.80;;;;;;5025385;28;20046;-74
2022/04/21 12:09:19;;;;;;;5.55;3.10;;;16.80;62.50;;;;;;4998344;28;20046;-78
2022/04/21 12:11:56;;;;;;;8.30;3.67;;;16.50;59.80;;;;;;5011600;28;20395;-75
2022/04/21 12:14:22;;;;;;;8.20;3.50;;;16.50;61.60;;;;;;4992624;28;20050;-75
2022/04/21 12:16:52;;;;;;;8.13;3.55;;;16.30;61.70;;;;;;4994933;28;20383;-87
2022/04/21 12:19:39;;;;;;;6.65;3.38;;;16.30;60.90;;;;;;4978361;28;20042;-86
2022/04/21 12:22:13;;;;;;;5.70;3.20;;;16.40;63.30;;;;;;4989851;28;20046;-83
2022/04/21 12:24:38;;;;;;;7.93;3.40;;;16.40;63.40;;;;;;4969441;28;20051;-78
2022/04/21 12:27:19;;;;;;;6.68;3.97;;;16.30;63.60;;;;;;4978644;28;20054;-77
2022/04/21 12:29:46;;;;;;;10.25;3.50;;;16.30;64.40;;;;;;5008796;28;20039;-77
2022/04/21 12:32:12;;;;;;;7.50;4.07;;;16.30;67.20;;;;;;4978798;28;20129;-78
2022/04/21 12:34:40;;;;;;;7.45;3.83;;;16.20;67.30;;;;;;5027562;28;20120;-78
2022/04/21 12:37:08;;;;;;;8.98;3.75;;;16.40;66.90;;;;;;4978352;28;20422;-78
2022/04/21 12:39:33;;;;;;;7.00;3.55;;;16.50;64.50;;;;;;4975088;28;20035;-78
2022/04/21 12:42:01;;;;;;;6.75;3.67;;;16.70;65.80;;;;;;5020981;28;20033;-77
2022/04/21 12:44:27;;;;;;;6.72;3.05;;;16.80;66.10;;;;;;4978604;28;20070;-78
2022/04/21 12:47:04;;;;;;;9.23;3.60;;;16.90;63.80;;;;;;4978784;28;20048;-78
2022/04/21 12:49:52;;;;;;;7.15;3.58;;;17.10;61.30;;;;;;4978526;28;20100;-78
2022/04/21 12:52:33;;;;;;;9.27;4.50;;;16.90;64.00;;;;;;4994020;28;20046;-79
2022/04/21 12:55:00;;;;;;;7.88;3.70;;;16.90;63.60;;;;;;4978967;28;20034;-79
2022/04/21 12:57:27;;;;;;;7.80;4.43;;;16.80;63.50;;;;;;4993303;28;20073;-79
2022/04/21 12:59:56;;;;;;;7.22;4.30;;;16.80;62.30;;;;;;4989107;28;20038;-79
2022/04/21 13:02:22;;;;;;;7.28;3.63;;;16.80;64.50;;;;;;4978855;28;20046;-79
2022/04/21 13:04:48;;;;;;;6.88;3.85;;;16.80;65.60;;;;;;4974797;28;20039;-72
2022/04/21 13:07:14;;;;;;;6.70;3.33;;;16.90;63.50;;;;;;4991231;28;20495;-72
2022/04/21 13:09:39;;;;;;;7.43;3.30;;;17.00;64.70;;;;;;4993412;28;20100;-73
2022/04/21 13:12:06;;;;;;;7.88;3.53;;;17.00;63.70;;;;;;4994159;28;20069;-72
2022/04/21 13:14:31;;;;;;;7.63;3.72;;;16.80;61.10;;;;;;5025021;28;20049;-72
2022/04/21 13:16:57;;;;;;;6.90;4.03;;;16.90;63.60;;;;;;4990982;28;20046;-74
2022/04/21 13:19:23;;;;;;;6.38;3.40;;;16.90;64.20;;;;;;4973338;28;20045;-75
2022/04/21 13:21:57;;;;;;;6.70;3.55;;;16.90;60.20;;;;;;4994504;28;20042;-72
2022/04/21 13:24:24;;;;;;;6.68;3.58;;;16.80;61.60;;;;;;4992808;28;20129;-72
2022/04/21 13:26:51;;;;;;;7.55;4.35;;;16.90;63.10;;;;;;5009443;28;20138;-81
2022/04/21 13:29:16;;;;;;;7.45;4.43;;;16.80;61.80;;;;;;4992847;28;20046;-82
2022/04/21 13:34:43;;;;;;;9.00;4.25;;;16.90;62.80;;;;;;4976267;28;20043;-82
2022/04/21 13:37:09;;;;;;;10.00;4.20;;;17.00;64.00;;;;;;4992513;28;20414;-82
2022/04/21 13:39:36;;;;;;;6.75;4.30;;;17.10;64.90;;;;;;4976298;28;20487;-81
2022/04/21 13:42:02;;;;;;;7.22;4.15;;;17.10;65.20;;;;;;5006130;28;20442;-82
2022/04/21 13:44:28;;;;;;;7.95;3.85;;;17.30;63.90;;;;;;4990606;28;20038;-79
2022/04/21 13:46:57;;;;;;;7.72;4.50;;;17.30;64.30;;;;;;4975562;28;20153;-80
2022/04/21 13:49:23;;;;;;;8.75;4.60;;;17.30;62.70;;;;;;4989001;28;20088;-81
2022/04/21 13:51:49;;;;;;;8.82;4.05;;;17.20;63.50;;;;;;4977049;28;20038;-81
2022/04/21 13:54:15;;;;;;;9.20;5.28;;;17.20;63.30;;;;;;4976553;28;20065;-81